createdAt,value
2024-01-25T00:00:12.356Z,103.69
2024-01-25T00:01:12.491Z,99.42
2024-01-25T00:02:12.553Z,102.72
2024-01-25T00:03:12.476Z,100.23
2024-01-25T00:04:12.575Z,100.45
2024-01-25T00:05:12.544Z,101.26
2024-01-25T00:06:12.528Z,99.18
2024-01-25T00:07:12.534Z,100.90
2024-01-25T00:08:12.514Z,97.25
2024-01-25T00:09:12.556Z,102.51
2024-01-25T00:10:12.664Z,100.80
2024-01-25T00:11:12.576Z,102.25
2024-01-25T00:12:12.620Z,104.13
2024-01-25T00:13:12.641Z,101.52
2024-01-25T00:14:12.689Z,102.61
2024-01-25T00:15:12.681Z,102.22
2024-01-25T00:16:12.829Z,103.60
2024-01-25T00:17:12.723Z,99.79
2024-01-25T00:18:12.796Z,101.86
2024-01-25T00:19:12.923Z,103.95
2024-01-25T00:20:13.046Z,102.92
2024-01-25T00:21:12.826Z,105.86
2024-01-25T00:22:12.969Z,103.96
2024-01-25T00:23:12.848Z,105.12
2024-01-25T00:24:12.866Z,102.48
2024-01-25T00:25:12.953Z,105.56
2024-01-25T00:26:12.930Z,106.31
2024-01-25T00:27:12.927Z,106.07
2024-01-25T00:28:13.034Z,105.41
2024-01-25T00:29:12.975Z,103.05
2024-01-25T00:30:12.981Z,100.73
2024-01-25T00:31:13.067Z,104.56
2024-01-25T00:32:13.027Z,103.17
2024-01-25T00:33:13.188Z,101.40
2024-01-25T00:34:13.150Z,103.90
2024-01-25T00:35:13.261Z,103.07
2024-01-25T00:36:13.105Z,104.39
2024-01-25T00:37:13.200Z,105.77
2024-01-25T00:38:13.135Z,100.49
2024-01-25T00:39:13.167Z,106.22
2024-01-25T00:40:13.291Z,106.06
2024-01-25T00:41:13.197Z,103.43
2024-01-25T00:42:13.208Z,102.93
2024-01-25T00:43:13.267Z,105.46
2024-01-25T00:44:13.268Z,102.07
2024-01-25T00:45:13.258Z,102.18
2024-01-25T00:46:13.324Z,105.47
2024-01-25T00:47:13.296Z,103.73
2024-01-25T00:48:13.413Z,106.97
2024-01-25T00:49:13.445Z,103.96
2024-01-25T00:50:13.475Z,104.31
2024-01-25T00:51:13.383Z,104.56
2024-01-25T00:52:13.443Z,103.80
2024-01-25T00:53:13.412Z,103.80
2024-01-25T00:54:13.443Z,105.57
2024-01-25T00:55:13.555Z,102.73
2024-01-25T00:56:13.486Z,102.31
2024-01-25T00:57:13.506Z,102.61
2024-01-25T00:58:13.634Z,104.87
2024-01-25T00:59:13.649Z,104.74
2024-01-25T01:00:13.588Z,103.80
2024-01-25T01:01:13.684Z,105.98
2024-01-25T01:02:13.897Z,103.44
2024-01-25T01:03:13.648Z,103.46
2024-01-25T01:04:13.728Z,103.69
2024-01-25T01:05:13.879Z,104.13
2024-01-25T01:06:13.753Z,105.36
2024-01-25T01:07:13.820Z,107.27
2024-01-25T01:08:13.805Z,104.40
2024-01-25T01:09:13.772Z,105.93
2024-01-25T01:10:13.829Z,106.76
2024-01-25T01:11:13.829Z,104.42
2024-01-25T01:12:13.875Z,105.32
2024-01-25T01:13:13.948Z,101.77
2024-01-25T01:14:13.884Z,105.67
2024-01-25T01:15:13.921Z,107.86
2024-01-25T01:16:13.997Z,103.38
2024-01-25T01:17:13.980Z,103.96
2024-01-25T01:18:14.112Z,105.70
2024-01-25T01:19:14.148Z,105.16
2024-01-25T01:20:14.167Z,106.23
2024-01-25T01:21:14.045Z,103.47
2024-01-25T01:22:14.135Z,106.71
2024-01-25T01:23:14.089Z,104.79
2024-01-25T01:24:14.100Z,101.62
2024-01-25T01:25:14.148Z,106.51
2024-01-25T01:26:14.146Z,102.31
2024-01-25T01:27:14.168Z,106.62
2024-01-25T01:28:14.243Z,106.54
2024-01-25T01:29:14.205Z,103.18
2024-01-25T01:30:14.238Z,102.79
2024-01-25T01:31:14.304Z,101.58
2024-01-25T01:32:14.267Z,103.62
2024-01-25T01:33:14.558Z,105.12
2024-01-25T01:34:14.410Z,105.31
2024-01-25T01:35:14.470Z,99.75
2024-01-25T01:36:14.346Z,103.21
2024-01-25T01:37:14.428Z,104.65
2024-01-25T01:38:14.390Z,102.42
2024-01-25T01:39:14.395Z,103.27
2024-01-25T01:40:14.492Z,102.11
2024-01-25T01:41:14.452Z,98.92
2024-01-25T01:42:14.451Z,102.10
2024-01-25T01:43:14.511Z,103.21
2024-01-25T01:44:14.530Z,99.97
2024-01-25T01:45:14.533Z,100.16
2024-01-25T01:46:14.619Z,100.88
2024-01-25T01:47:14.608Z,101.75
2024-01-25T01:48:14.693Z,103.56
2024-01-25T01:49:14.862Z,103.39
2024-01-25T01:50:14.814Z,97.81
2024-01-25T01:51:14.749Z,101.62
2024-01-25T01:52:14.713Z,102.95
2024-01-25T01:53:14.683Z,100.86
2024-01-25T01:54:14.715Z,102.91
2024-01-25T01:55:14.771Z,97.31
2024-01-25T01:56:14.751Z,102.09
2024-01-25T01:57:14.778Z,100.51
2024-01-25T01:58:14.893Z,101.94
2024-01-25T01:59:14.807Z,100.10
2024-01-25T02:00:14.850Z,98.27
2024-01-25T02:01:14.963Z,99.08
2024-01-25T02:02:15.039Z,97.12
2024-01-25T02:03:14.935Z,95.32
2024-01-25T02:04:15.025Z,95.65
2024-01-25T02:05:14.978Z,95.81
2024-01-25T02:06:14.967Z,96.23
2024-01-25T02:07:14.967Z,97.53
2024-01-25T02:08:15.009Z,98.05
2024-01-25T02:09:15.001Z,96.14
2024-01-25T02:10:15.120Z,96.46
2024-01-25T02:11:15.036Z,95.65
2024-01-25T02:12:15.067Z,99.81
2024-01-25T02:13:15.173Z,93.60
2024-01-25T02:14:15.118Z,95.15
2024-01-25T02:15:15.147Z,95.33
2024-01-25T02:16:15.389Z,93.18
2024-01-25T02:17:15.443Z,94.25
2024-01-25T02:18:15.338Z,91.53
2024-01-25T02:19:15.356Z,93.82
2024-01-25T02:20:15.461Z,93.20
2024-01-25T02:21:15.261Z,92.93
2024-01-25T02:22:15.318Z,92.65
2024-01-25T02:23:15.310Z,94.53
2024-01-25T02:24:15.333Z,89.89
2024-01-25T02:25:15.400Z,91.97
2024-01-25T02:26:15.389Z,90.97
2024-01-25T02:27:15.414Z,93.49
2024-01-25T02:28:15.463Z,94.20
2024-01-25T02:29:15.450Z,94.43
2024-01-25T02:30:15.474Z,92.65
2024-01-25T02:31:15.628Z,93.18
2024-01-25T02:32:15.509Z,93.30
2024-01-25T02:33:15.654Z,93.65
2024-01-25T02:34:15.637Z,89.84
2024-01-25T02:35:15.701Z,92.21
2024-01-25T02:36:15.588Z,91.04
2024-01-25T02:37:15.786Z,89.80
2024-01-25T02:38:15.628Z,88.87
2024-01-25T02:39:15.647Z,86.83
2024-01-25T02:40:15.734Z,90.40
2024-01-25T02:41:15.685Z,94.25
2024-01-25T02:42:15.735Z,91.43
2024-01-25T02:43:15.894Z,90.23
2024-01-25T02:44:15.753Z,91.81
2024-01-25T02:45:15.782Z,90.69
2024-01-25T02:46:15.836Z,89.47
2024-01-25T02:47:15.808Z,89.58
2024-01-25T02:48:15.972Z,89.54
2024-01-25T02:49:16.120Z,89.62
2024-01-25T02:50:15.941Z,89.72
2024-01-25T02:51:15.914Z,89.56
2024-01-25T02:52:16.026Z,88.28
2024-01-25T02:53:15.918Z,89.98
2024-01-25T02:54:15.966Z,89.15
2024-01-25T02:55:15.998Z,88.76
2024-01-25T02:56:15.991Z,88.40
2024-01-25T02:57:16.019Z,86.86
2024-01-25T02:58:16.086Z,89.24
2024-01-25T02:59:16.041Z,89.22
2024-01-25T03:00:16.066Z,87.78
2024-01-25T03:01:16.164Z,90.46
2024-01-25T03:02:16.276Z,91.18
2024-01-25T03:03:16.134Z,86.01
2024-01-25T03:04:16.288Z,90.21
2024-01-25T03:05:16.324Z,86.86
2024-01-25T03:06:16.219Z,87.83
2024-01-25T03:07:16.239Z,88.15
2024-01-25T03:08:16.201Z,87.81
2024-01-25T03:09:16.236Z,89.66
2024-01-25T03:10:16.514Z,90.97
2024-01-25T03:11:16.268Z,91.15
2024-01-25T03:12:16.297Z,88.42
2024-01-25T03:13:16.410Z,87.35
2024-01-25T03:14:16.327Z,87.10
2024-01-25T03:15:16.442Z,88.56
2024-01-25T03:16:16.526Z,85.99
2024-01-25T03:17:16.355Z,87.06
2024-01-25T03:18:16.487Z,86.97
2024-01-25T03:19:16.455Z,88.12
2024-01-25T03:20:16.548Z,88.90
2024-01-25T03:21:16.439Z,87.28
2024-01-25T03:22:16.528Z,86.98
2024-01-25T03:23:16.500Z,90.43
2024-01-25T03:24:16.528Z,89.24
2024-01-25T03:25:16.543Z,90.23
2024-01-25T03:26:16.525Z,89.42
2024-01-25T03:27:16.569Z,91.73
2024-01-25T03:28:16.575Z,90.62
2024-01-25T03:29:16.567Z,88.12
2024-01-25T03:30:16.597Z,88.20
2024-01-25T03:31:16.741Z,85.77
2024-01-25T03:32:16.619Z,87.93
2024-01-25T03:33:16.712Z,87.41
2024-01-25T03:34:16.765Z,87.33
2024-01-25T03:35:16.758Z,89.37
2024-01-25T03:36:16.670Z,88.37
2024-01-25T03:37:16.787Z,89.08
2024-01-25T03:38:16.716Z,88.18
2024-01-25T03:39:16.730Z,89.14
2024-01-25T03:40:16.810Z,88.61
2024-01-25T03:41:16.775Z,90.50
2024-01-25T03:42:16.773Z,88.38
2024-01-25T03:43:20.668Z,87.11
2024-01-25T03:44:17.860Z,87.24
2024-01-25T03:45:16.810Z,87.25
2024-01-25T03:46:16.845Z,88.59
2024-01-25T03:47:16.804Z,89.94
2024-01-25T03:48:16.938Z,87.97
2024-01-25T03:49:16.927Z,89.03
2024-01-25T03:50:16.880Z,90.71
2024-01-25T03:51:16.806Z,86.23
2024-01-25T03:52:16.865Z,86.10
2024-01-25T03:53:16.832Z,84.69
2024-01-25T03:54:16.858Z,86.01
2024-01-25T03:55:16.890Z,84.24
2024-01-25T03:56:16.815Z,85.07
2024-01-25T03:57:16.915Z,85.23
2024-01-25T03:58:16.883Z,84.71
2024-01-25T03:59:16.820Z,86.27
2024-01-25T04:00:16.849Z,85.92
2024-01-25T04:01:16.976Z,82.91
2024-01-25T04:02:17.051Z,83.03
2024-01-25T04:03:16.938Z,85.33
2024-01-25T04:04:16.996Z,83.80
2024-01-25T04:05:16.833Z,85.19
2024-01-25T04:06:16.930Z,80.46
2024-01-25T04:07:16.888Z,85.20
2024-01-25T04:08:16.831Z,82.64
2024-01-25T04:09:16.836Z,84.59
2024-01-25T04:10:16.881Z,83.65
2024-01-25T04:11:16.835Z,82.54
2024-01-25T04:12:16.908Z,84.84
2024-01-25T04:13:16.854Z,85.77
2024-01-25T04:14:16.835Z,87.92
2024-01-25T04:15:16.870Z,84.37
2024-01-25T04:16:16.914Z,81.27
2024-01-25T04:17:16.884Z,83.20
2024-01-25T04:18:16.962Z,83.28
2024-01-25T04:19:17.023Z,82.09
2024-01-25T04:20:17.194Z,83.37
2024-01-25T04:21:16.989Z,83.97
2024-01-25T04:22:17.087Z,83.41
2024-01-25T04:23:17.017Z,84.21
2024-01-25T04:24:17.031Z,83.14
2024-01-25T04:25:17.088Z,82.49
2024-01-25T04:26:17.083Z,83.07
2024-01-25T04:27:17.080Z,83.21
2024-01-25T04:28:17.160Z,82.84
2024-01-25T04:29:17.122Z,84.10
2024-01-25T04:30:17.158Z,82.86
2024-01-25T04:31:17.221Z,82.38
2024-01-25T04:32:17.186Z,80.90
2024-01-25T04:33:17.269Z,81.47
2024-01-25T04:34:17.353Z,79.54
2024-01-25T04:35:17.473Z,81.22
2024-01-25T04:36:17.271Z,79.65
2024-01-25T04:37:17.455Z,80.71
2024-01-25T04:38:17.274Z,79.38
2024-01-25T04:39:17.323Z,80.47
2024-01-25T04:40:17.355Z,78.11
2024-01-25T04:41:17.336Z,79.67
2024-01-25T04:42:17.344Z,82.16
2024-01-25T04:43:17.391Z,82.15
2024-01-25T04:44:17.415Z,80.50
2024-01-25T04:45:17.417Z,82.71
2024-01-25T04:46:17.460Z,80.25
2024-01-25T04:47:17.440Z,82.78
2024-01-25T04:48:17.494Z,82.21
2024-01-25T04:49:17.491Z,81.22
2024-01-25T04:50:17.703Z,80.65
2024-01-25T04:51:17.496Z,83.47
2024-01-25T04:52:17.565Z,79.55
2024-01-25T04:53:24.899Z,50.00
2024-01-25T04:54:24.875Z,50.00
2024-01-25T04:55:25.060Z,50.00
2024-01-25T04:56:24.863Z,50.00
2024-01-25T04:57:24.889Z,50.00
2024-01-25T04:58:24.990Z,50.34
2024-01-25T04:59:24.886Z,53.43
2024-01-25T05:00:24.887Z,52.84
2024-01-25T05:01:24.980Z,51.23
2024-01-25T05:02:25.014Z,52.93
2024-01-25T05:03:24.927Z,52.37
2024-01-25T05:04:24.978Z,54.34
2024-01-25T05:05:24.954Z,54.02
2024-01-25T05:06:24.896Z,50.40
2024-01-25T05:07:29.855Z,53.27
2024-01-25T05:08:25.958Z,53.40
2024-01-25T05:09:24.905Z,53.51
2024-01-25T05:10:24.983Z,54.50
2024-01-25T05:11:24.896Z,54.36
2024-01-25T05:12:24.909Z,54.91
2024-01-25T05:13:24.959Z,54.80
2024-01-25T05:14:24.929Z,55.22
2024-01-25T05:15:24.918Z,54.21
2024-01-25T05:16:24.949Z,52.56
2024-01-25T05:17:24.945Z,51.52
2024-01-25T05:18:25.029Z,55.25
2024-01-25T05:19:25.010Z,53.99
2024-01-25T05:20:25.099Z,53.02
2024-01-25T05:21:24.924Z,54.39
2024-01-25T05:22:25.019Z,53.85
2024-01-25T05:23:24.917Z,52.08
2024-01-25T05:24:24.923Z,51.61
2024-01-25T05:25:25.032Z,53.09
2024-01-25T05:26:24.950Z,50.07
2024-01-25T05:27:24.934Z,53.44
2024-01-25T05:28:25.000Z,53.70
2024-01-25T05:29:24.975Z,51.80
2024-01-25T05:30:24.951Z,52.81
2024-01-25T05:31:24.964Z,50.10
2024-01-25T05:32:24.955Z,52.95
2024-01-25T05:33:25.074Z,53.03
2024-01-25T05:34:25.079Z,53.24
2024-01-25T05:35:25.302Z,52.90
2024-01-25T05:36:25.074Z,53.08
2024-01-25T05:37:25.139Z,55.22
2024-01-25T05:38:25.107Z,55.78
2024-01-25T05:39:25.144Z,53.64
2024-01-25T05:40:25.350Z,54.63
2024-01-25T05:41:25.180Z,53.84
2024-01-25T05:42:25.220Z,53.49
2024-01-25T05:43:25.307Z,52.74
2024-01-25T05:44:25.259Z,53.42
2024-01-25T05:45:25.297Z,56.15
2024-01-25T05:46:25.480Z,56.36
2024-01-25T05:47:25.387Z,53.97
2024-01-25T05:48:25.457Z,56.09
2024-01-25T05:49:25.493Z,56.54
2024-01-25T05:50:25.484Z,50.53
2024-01-25T05:51:25.449Z,50.45
2024-01-25T05:52:25.624Z,50.00
2024-01-25T05:53:25.492Z,50.95
2024-01-25T05:54:25.522Z,52.75
2024-01-25T05:55:25.596Z,56.23
2024-01-25T05:56:25.568Z,56.79
2024-01-25T05:57:25.601Z,56.63
2024-01-25T05:58:25.682Z,60.32
2024-01-25T05:59:25.664Z,58.69
2024-01-25T06:00:25.707Z,56.73
2024-01-25T06:01:25.764Z,62.76
2024-01-25T06:02:25.852Z,66.64
2024-01-25T06:03:25.811Z,63.74
2024-01-25T06:04:25.878Z,63.33
2024-01-25T06:05:26.114Z,65.91
2024-01-25T06:06:25.977Z,67.41
2024-01-25T06:07:26.088Z,66.89
2024-01-25T06:08:25.964Z,63.62
2024-01-25T06:09:25.993Z,64.06
2024-01-25T06:10:26.146Z,64.05
2024-01-25T06:11:25.989Z,69.02
2024-01-25T06:12:26.031Z,69.12
2024-01-25T06:13:26.148Z,69.38
2024-01-25T06:14:26.047Z,66.82
2024-01-25T06:15:26.075Z,68.93
2024-01-25T06:16:26.145Z,67.97
2024-01-25T06:17:26.268Z,68.28
2024-01-25T06:18:26.303Z,69.69
2024-01-25T06:19:26.273Z,68.76
2024-01-25T06:20:26.328Z,70.05
2024-01-25T06:21:26.238Z,67.21
2024-01-25T06:22:26.397Z,70.11
2024-01-25T06:23:26.314Z,71.98
2024-01-25T06:24:26.323Z,69.81
2024-01-25T06:25:26.606Z,74.66
2024-01-25T06:26:26.372Z,75.42
2024-01-25T06:27:26.405Z,72.52
2024-01-25T06:28:26.460Z,77.35
2024-01-25T06:29:26.473Z,77.72
2024-01-25T06:30:26.539Z,74.25
2024-01-25T06:31:26.672Z,62.45
2024-01-25T06:32:27.220Z,57.15
2024-01-25T06:33:26.691Z,56.12
2024-01-25T06:34:26.712Z,57.31
2024-01-25T06:35:27.318Z,55.47
2024-01-25T06:36:26.637Z,50.00
2024-01-25T06:37:26.707Z,52.87
2024-01-25T06:38:26.688Z,56.56
2024-01-25T06:39:26.705Z,53.58
2024-01-25T06:40:27.063Z,50.00
2024-01-25T06:41:26.762Z,50.00
2024-01-25T06:42:26.809Z,50.30
2024-01-25T06:43:26.975Z,52.88
2024-01-25T06:44:26.891Z,50.00
2024-01-25T06:45:27.057Z,55.59
2024-01-25T06:46:27.216Z,57.82
2024-01-25T06:47:27.130Z,49.63
2024-01-25T06:48:27.240Z,59.37
2024-01-25T06:49:27.338Z,55.67
2024-01-25T06:50:27.575Z,53.42
2024-01-25T06:51:27.309Z,55.04
2024-01-25T06:52:29.944Z,53.02
2024-01-25T06:53:27.383Z,56.04
2024-01-25T06:54:27.384Z,55.11
2024-01-25T06:55:27.432Z,60.02
2024-01-25T06:56:27.380Z,62.46
2024-01-25T06:57:27.374Z,64.50
2024-01-25T06:58:27.393Z,67.40
2024-01-25T06:59:27.398Z,73.96
2024-01-25T07:00:27.388Z,76.90
2024-01-25T07:01:28.131Z,81.76
2024-01-25T07:02:27.559Z,88.79
2024-01-25T07:03:27.425Z,94.64
2024-01-25T07:04:27.463Z,101.82
2024-01-25T07:05:27.590Z,109.96
2024-01-25T07:06:27.508Z,110.67
2024-01-25T07:07:27.533Z,114.94
2024-01-25T07:08:27.403Z,116.03
2024-01-25T07:09:27.404Z,118.63
2024-01-25T07:10:27.520Z,124.22
2024-01-25T07:11:27.416Z,127.23
2024-01-25T07:12:27.441Z,129.05
2024-01-25T07:13:27.585Z,137.17
2024-01-25T07:14:27.488Z,142.59
2024-01-25T07:15:27.408Z,142.51
2024-01-25T07:16:27.578Z,148.63
2024-01-25T07:17:27.415Z,153.68
2024-01-25T07:18:27.570Z,155.44
2024-01-25T07:19:27.524Z,157.53
2024-01-25T07:20:27.551Z,164.77
2024-01-25T07:21:27.429Z,166.71
2024-01-25T07:22:27.467Z,175.04
2024-01-25T07:23:27.429Z,178.45
2024-01-25T07:24:27.446Z,178.30
2024-01-25T07:25:27.611Z,182.52
2024-01-25T07:26:27.427Z,187.24
2024-01-25T07:27:27.498Z,190.73
2024-01-25T07:28:27.464Z,193.96
2024-01-25T07:29:27.419Z,197.89
2024-01-25T07:30:27.563Z,199.50
2024-01-25T07:31:27.496Z,198.08
2024-01-25T07:32:27.494Z,200.00
2024-01-25T07:33:27.552Z,199.42
2024-01-25T07:34:27.528Z,200.00
2024-01-25T07:35:27.671Z,200.00
2024-01-25T07:36:27.440Z,200.15
2024-01-25T07:37:27.462Z,200.00
2024-01-25T07:38:27.428Z,199.94
2024-01-25T07:39:27.480Z,200.00
2024-01-25T07:40:27.612Z,199.98
2024-01-25T07:41:27.611Z,198.80
2024-01-25T07:42:27.660Z,200.00
2024-01-25T07:43:27.850Z,200.00
2024-01-25T07:44:27.802Z,199.30
2024-01-25T07:45:28.094Z,198.98
2024-01-25T07:46:27.894Z,199.57
2024-01-25T07:47:27.948Z,198.43
2024-01-25T07:48:28.073Z,199.83
2024-01-25T07:49:28.255Z,198.20
2024-01-25T07:50:28.633Z,200.00
2024-01-25T07:51:28.140Z,199.66
2024-01-25T07:52:28.323Z,198.50
2024-01-25T07:53:28.255Z,198.84
2024-01-25T07:54:28.312Z,200.00
2024-01-25T07:55:28.416Z,200.00
2024-01-25T07:56:28.395Z,200.00
2024-01-25T07:57:28.429Z,197.86
2024-01-25T07:58:28.607Z,199.70
2024-01-25T07:59:28.535Z,198.51
2024-01-25T08:00:28.622Z,199.65
2024-01-25T08:01:28.720Z,198.71
2024-01-25T08:02:28.784Z,197.94
2024-01-25T08:03:28.725Z,199.84
2024-01-25T08:04:28.829Z,199.42
2024-01-25T08:05:37.279Z,199.49
2024-01-25T08:06:29.854Z,199.57
2024-01-25T08:07:28.897Z,200.17
2024-01-25T08:08:28.791Z,201.52
2024-01-25T08:09:28.797Z,202.58
2024-01-25T08:10:29.780Z,198.31
2024-01-25T08:11:28.805Z,193.87
2024-01-25T08:12:28.784Z,186.32
2024-01-25T08:13:30.105Z,177.64
2024-01-25T08:14:28.810Z,168.23
2024-01-25T08:15:28.810Z,158.62
2024-01-25T08:16:29.066Z,149.68
2024-01-25T08:17:28.976Z,142.45
2024-01-25T08:18:28.841Z,139.96
2024-01-25T08:19:29.001Z,134.83
2024-01-25T08:20:29.220Z,134.94
2024-01-25T08:21:28.917Z,134.51
2024-01-25T08:22:28.934Z,132.00
2024-01-25T08:23:28.992Z,129.66
2024-01-25T08:24:29.042Z,130.73
2024-01-25T08:25:30.032Z,128.01
2024-01-25T08:26:29.136Z,130.41
2024-01-25T08:27:29.192Z,130.75
2024-01-25T08:28:29.251Z,131.75
2024-01-25T08:29:29.222Z,135.58
2024-01-25T08:30:29.591Z,137.39
2024-01-25T08:31:29.544Z,141.96
2024-01-25T08:32:29.309Z,147.19
2024-01-25T08:33:29.403Z,150.77
2024-01-25T08:34:29.357Z,154.23
2024-01-25T08:35:29.704Z,158.98
2024-01-25T08:36:29.362Z,163.96
2024-01-25T08:37:29.540Z,165.92
2024-01-25T08:38:29.466Z,168.98
2024-01-25T08:39:29.559Z,169.59
2024-01-25T08:40:30.884Z,173.47
2024-01-25T08:41:33.063Z,174.11
2024-01-25T08:42:29.702Z,178.27
2024-01-25T08:43:29.768Z,180.67
2024-01-25T08:44:29.691Z,181.14
2024-01-25T08:45:29.699Z,183.57
2024-01-25T08:46:29.844Z,183.12
2024-01-25T08:47:29.725Z,186.46
2024-01-25T08:48:29.725Z,187.46
2024-01-25T08:49:29.822Z,187.72
2024-01-25T08:50:29.993Z,187.42
2024-01-25T08:51:29.704Z,182.12
2024-01-25T08:52:29.830Z,181.59
2024-01-25T08:53:29.743Z,180.11
2024-01-25T08:54:29.710Z,178.48
2024-01-25T08:55:29.767Z,177.53
2024-01-25T08:56:29.711Z,175.68
2024-01-25T08:57:29.720Z,175.14
2024-01-25T08:58:29.848Z,172.91
2024-01-25T08:59:29.720Z,169.77
2024-01-25T09:00:29.740Z,166.62
2024-01-25T09:01:29.934Z,164.89
2024-01-25T09:02:29.843Z,160.50
2024-01-25T09:03:29.717Z,158.71
2024-01-25T09:04:29.811Z,155.91
2024-01-25T09:05:30.062Z,151.78
2024-01-25T09:06:30.136Z,149.19
2024-01-25T09:07:29.846Z,148.38
2024-01-25T09:08:29.873Z,146.73
2024-01-25T09:09:29.740Z,146.27
2024-01-25T09:10:29.821Z,145.20
2024-01-25T09:11:29.739Z,145.12
2024-01-25T09:12:29.728Z,146.06
2024-01-25T09:13:29.825Z,143.89
2024-01-25T09:14:29.732Z,147.91
2024-01-25T09:15:29.772Z,147.26
2024-01-25T09:16:29.896Z,149.79
2024-01-25T09:17:29.859Z,152.60
2024-01-25T09:18:29.785Z,156.34
2024-01-25T09:19:29.948Z,157.59
2024-01-25T09:20:29.801Z,160.22
2024-01-25T09:21:30.134Z,162.33
2024-01-25T09:22:29.929Z,164.49
2024-01-25T09:23:29.733Z,163.93
2024-01-25T09:24:29.732Z,162.22
2024-01-25T09:25:29.869Z,169.46
2024-01-25T09:26:29.844Z,175.60
2024-01-25T09:27:29.889Z,181.18
2024-01-25T09:28:30.000Z,186.34
2024-01-25T09:29:29.993Z,192.47
2024-01-25T09:30:30.080Z,196.69
2024-01-25T09:31:30.657Z,198.50
2024-01-25T09:32:30.221Z,199.29
2024-01-25T09:33:30.374Z,199.64
2024-01-25T09:34:30.408Z,197.85
2024-01-25T09:35:30.576Z,200.00
2024-01-25T09:36:30.602Z,199.91
2024-01-25T09:37:30.485Z,200.00
2024-01-25T09:38:30.472Z,200.00
2024-01-25T09:39:30.514Z,198.94
2024-01-25T09:40:30.691Z,199.88
2024-01-25T09:41:30.576Z,199.34
2024-01-25T09:42:30.615Z,200.07
2024-01-25T09:43:30.752Z,199.46
2024-01-25T09:44:30.702Z,200.00
2024-01-25T09:45:30.728Z,199.88
2024-01-25T09:46:30.898Z,200.00
2024-01-25T09:47:30.864Z,200.00
2024-01-25T09:48:30.986Z,199.21
2024-01-25T09:49:31.089Z,198.69
2024-01-25T09:50:30.916Z,198.48
2024-01-25T09:51:30.926Z,199.07
2024-01-25T09:52:31.029Z,198.75
2024-01-25T09:53:30.981Z,198.46
2024-01-25T09:54:33.012Z,198.03
2024-01-25T09:55:31.155Z,197.57
2024-01-25T09:56:31.029Z,199.20
2024-01-25T09:57:31.018Z,198.68
2024-01-25T09:58:31.102Z,199.09
2024-01-25T09:59:31.035Z,198.97
2024-01-25T10:00:33.305Z,196.98
2024-01-25T10:01:31.147Z,197.07
2024-01-25T10:02:31.140Z,197.22
2024-01-25T10:03:31.029Z,197.21
2024-01-25T10:04:31.120Z,197.08
2024-01-25T10:05:31.189Z,196.65
2024-01-25T10:06:31.336Z,194.88
2024-01-25T10:07:31.067Z,196.12
2024-01-25T10:08:31.068Z,196.36
2024-01-25T10:09:31.029Z,194.92
2024-01-25T10:10:31.081Z,194.55
2024-01-25T10:11:32.620Z,194.97
2024-01-25T10:12:31.027Z,195.39
2024-01-25T10:13:31.077Z,194.04
2024-01-25T10:14:31.042Z,193.77
2024-01-25T10:15:31.051Z,193.99
2024-01-25T10:16:31.389Z,192.29
2024-01-25T10:17:51.935Z,191.25
2024-01-25T10:18:32.278Z,191.27
2024-01-25T10:19:31.213Z,191.59
2024-01-25T10:20:32.128Z,191.82
2024-01-25T10:21:31.206Z,193.21
2024-01-25T10:22:31.248Z,193.35
2024-01-25T10:23:31.170Z,194.90
2024-01-25T10:24:31.184Z,194.93
2024-01-25T10:25:31.226Z,193.54
2024-01-25T10:26:31.071Z,192.18
2024-01-25T10:27:31.079Z,188.51
2024-01-25T10:28:31.292Z,186.41
2024-01-25T10:29:31.194Z,182.27
2024-01-25T10:30:31.138Z,177.79
2024-01-25T10:31:31.196Z,174.75
2024-01-25T10:32:31.157Z,174.20
2024-01-25T10:33:31.288Z,172.39
2024-01-25T10:34:31.240Z,171.87
2024-01-25T10:35:31.275Z,171.41
2024-01-25T10:36:31.158Z,170.75
2024-01-25T10:37:31.291Z,170.04
2024-01-25T10:38:31.200Z,168.56
2024-01-25T10:39:31.228Z,169.57
2024-01-25T10:40:31.443Z,171.18
2024-01-25T10:41:31.236Z,171.12
2024-01-25T10:42:31.273Z,174.13
2024-01-25T10:43:31.315Z,177.06
2024-01-25T10:44:31.322Z,176.86
2024-01-25T10:45:31.307Z,176.00
2024-01-25T10:46:31.376Z,176.29
2024-01-25T10:47:31.397Z,172.71
2024-01-25T10:48:31.430Z,171.34
2024-01-25T10:49:31.543Z,167.69
2024-01-25T10:50:31.577Z,164.02
2024-01-25T10:51:31.595Z,157.91
2024-01-25T10:52:31.706Z,157.59
2024-01-25T10:53:31.666Z,156.18
2024-01-25T10:54:31.769Z,153.60
2024-01-25T10:55:31.891Z,155.16
2024-01-25T10:56:32.001Z,152.32
2024-01-25T10:57:31.954Z,153.89
2024-01-25T10:58:34.350Z,153.78
2024-01-25T10:59:31.941Z,153.83
2024-01-25T11:00:32.169Z,153.80
2024-01-25T11:01:32.193Z,154.23
2024-01-25T11:02:32.076Z,155.69
2024-01-25T11:03:32.113Z,158.22
2024-01-25T11:04:32.168Z,160.25
2024-01-25T11:05:32.063Z,161.40
2024-01-25T11:06:33.881Z,161.42
2024-01-25T11:07:32.177Z,161.48
2024-01-25T11:08:31.944Z,161.83
2024-01-25T11:09:32.095Z,161.96
2024-01-25T11:10:32.151Z,161.65
2024-01-25T11:11:31.971Z,159.06
2024-01-25T11:12:34.121Z,156.93
2024-01-25T11:13:32.088Z,153.63
2024-01-25T11:14:31.997Z,148.93
2024-01-25T11:15:31.973Z,143.30
2024-01-25T11:16:32.102Z,141.08
2024-01-25T11:17:32.001Z,137.70
2024-01-25T11:18:33.874Z,133.96
2024-01-25T11:19:32.000Z,133.59
2024-01-25T11:20:32.239Z,130.38
2024-01-25T11:21:31.996Z,126.83
2024-01-25T11:22:32.339Z,123.68
2024-01-25T11:23:31.992Z,119.25
2024-01-25T11:24:31.988Z,114.02
2024-01-25T11:25:32.111Z,111.70
2024-01-25T11:26:31.992Z,109.21
2024-01-25T11:27:32.184Z,106.82
2024-01-25T11:28:32.161Z,104.45
2024-01-25T11:29:31.998Z,103.55
2024-01-25T11:30:32.011Z,103.32
2024-01-25T11:31:32.296Z,103.48
2024-01-25T11:32:32.045Z,106.45
2024-01-25T11:33:32.192Z,105.79
2024-01-25T11:34:32.167Z,106.41
2024-01-25T11:35:32.082Z,107.28
2024-01-25T11:36:32.019Z,108.79
2024-01-25T11:37:32.111Z,112.07
2024-01-25T11:38:32.174Z,110.88
2024-01-25T11:39:32.024Z,110.99
2024-01-25T11:40:35.516Z,111.45
2024-01-25T11:41:33.029Z,110.95
2024-01-25T11:42:32.023Z,111.17
2024-01-25T11:43:32.087Z,112.17
2024-01-25T11:44:32.027Z,112.80
2024-01-25T11:45:32.027Z,111.38
2024-01-25T11:46:34.702Z,111.84
2024-01-25T11:47:32.069Z,111.90
2024-01-25T11:48:32.172Z,111.60
2024-01-25T11:49:32.128Z,109.41
2024-01-25T11:50:32.313Z,110.97
2024-01-25T11:51:32.050Z,109.30
2024-01-25T11:52:32.133Z,108.40
2024-01-25T11:53:32.035Z,107.42
2024-01-25T11:54:32.048Z,109.56
2024-01-25T11:55:32.202Z,108.05
2024-01-25T11:56:32.055Z,107.71
2024-01-25T11:57:32.052Z,107.85
2024-01-25T11:58:34.195Z,105.38
2024-01-25T11:59:32.046Z,108.33
2024-01-25T12:00:32.039Z,107.25
2024-01-25T12:01:32.138Z,106.85
2024-01-25T12:02:32.151Z,105.15
2024-01-25T12:03:32.045Z,103.97
2024-01-25T12:04:33.561Z,103.32
2024-01-25T12:05:32.276Z,103.07
2024-01-25T12:06:32.127Z,103.39
2024-01-25T12:07:32.292Z,102.35
2024-01-25T12:08:32.058Z,101.72
2024-01-25T12:09:32.075Z,101.01
2024-01-25T12:10:32.103Z,100.88
2024-01-25T12:11:32.071Z,99.43
2024-01-25T12:12:32.073Z,99.38
2024-01-25T12:13:32.174Z,97.04
2024-01-25T12:14:32.063Z,91.09
2024-01-25T12:15:32.250Z,88.62
2024-01-25T12:16:34.160Z,90.48
2024-01-25T12:17:32.118Z,89.90
2024-01-25T12:18:32.090Z,90.73
2024-01-25T12:19:32.220Z,92.09
2024-01-25T12:20:32.160Z,93.79
2024-01-25T12:21:32.080Z,97.82
2024-01-25T12:22:34.836Z,97.00
2024-01-25T12:23:32.086Z,97.02
2024-01-25T12:24:32.948Z,97.07
2024-01-25T12:25:32.087Z,97.28
2024-01-25T12:26:32.077Z,98.68
2024-01-25T12:27:32.088Z,102.07
2024-01-25T12:28:32.174Z,100.93
2024-01-25T12:29:32.090Z,98.68
2024-01-25T12:30:32.203Z,96.04
2024-01-25T12:31:32.360Z,97.42
2024-01-25T12:32:32.141Z,96.51
2024-01-25T12:33:32.214Z,95.73
2024-01-25T12:34:33.950Z,96.81
2024-01-25T12:35:32.181Z,97.84
2024-01-25T12:36:32.103Z,96.01
2024-01-25T12:37:32.290Z,100.33
2024-01-25T12:38:32.130Z,99.51
2024-01-25T12:39:32.115Z,100.08